Terminal Aerodrome Forecast
Issued by NWS

Home | Current Version | Previous Version | Text Only | Print | Product List | Glossary On
Versions: 1 2 3 4 5 6 7 8 9 10 11 12 13 14 15 16 17 18 19 20 21 22 23 24 25 26 27 28 29 30 31 32 33 34
000
FTUS45 KREV 111124
TAFRNO
TAF
KRNO 111124Z 1112/1212 35007KT P6SM VCFG FEW050 SCT200
     FM111600 16006KT P6SM FEW050 SCT200
     FM112000 26009KT P6SM FEW050 SCT120 BKN200
     FM120400 32006KT P6SM BKN120 BKN200=

USA.gov is the U.S. government's official web portal to all federal, state and local government web resources and services.